createdAt,value
2022-12-08T00:01:22.026Z,98.09
2022-12-08T00:03:49.918Z,97.96
2022-12-08T00:06:45.706Z,97.92
2022-12-08T00:09:24.741Z,98.33
2022-12-08T00:12:00.190Z,98.75
2022-12-08T00:14:30.445Z,98.28
2022-12-08T00:16:59.123Z,98.79
2022-12-08T00:19:27.759Z,98.35
2022-12-08T00:21:57.421Z,98.35
2022-12-08T00:24:26.687Z,98.68
2022-12-08T00:26:54.489Z,98.66
2022-12-08T00:29:22.188Z,98.73
2022-12-08T00:31:49.924Z,98.55
2022-12-08T00:34:18.437Z,98.46
2022-12-08T00:36:46.569Z,98.07
2022-12-08T00:39:17.488Z,98.18
2022-12-08T00:42:11.137Z,98.37
2022-12-08T00:44:39.289Z,97.90
2022-12-08T00:47:07.048Z,98.18
2022-12-08T00:49:34.746Z,98.07
2022-12-08T00:52:02.816Z,97.91
2022-12-08T00:54:32.125Z,97.87
2022-12-08T00:56:59.784Z,98.10
2022-12-08T00:59:27.448Z,98.32
2022-12-08T01:01:55.118Z,98.06
2022-12-08T01:04:22.881Z,98.06
2022-12-08T01:06:50.868Z,97.77
2022-12-08T01:09:20.806Z,97.59
2022-12-08T01:11:49.973Z,97.48
2022-12-08T01:14:17.672Z,97.64
2022-12-08T01:16:45.422Z,97.87
2022-12-08T01:19:15.314Z,97.90
2022-12-08T01:21:43.633Z,97.61
2022-12-08T01:24:13.115Z,97.58
2022-12-08T01:26:40.874Z,97.69
2022-12-08T01:29:10.224Z,97.66
2022-12-08T01:31:38.225Z,97.19
2022-12-08T01:34:05.998Z,97.39
2022-12-08T01:36:36.990Z,97.22
2022-12-08T01:39:06.652Z,97.42
2022-12-08T01:41:37.493Z,97.80
2022-12-08T01:44:44.047Z,97.30
2022-12-08T01:47:13.259Z,97.32
2022-12-08T01:49:41.010Z,97.49
2022-12-08T01:52:15.623Z,98.16
2022-12-08T01:54:51.874Z,97.77
2022-12-08T01:57:22.807Z,98.14
2022-12-08T01:59:57.949Z,98.11
2022-12-08T02:02:29.940Z,98.23
2022-12-08T02:04:57.687Z,98.16
2022-12-08T02:07:25.621Z,97.77
2022-12-08T02:09:54.884Z,97.56
2022-12-08T02:12:22.696Z,97.62
2022-12-08T02:14:50.483Z,97.70
2022-12-08T02:17:31.700Z,97.58
2022-12-08T02:20:28.779Z,97.57
2022-12-08T02:23:04.650Z,98.20
2022-12-08T02:25:42.983Z,97.44
2022-12-08T02:28:44.045Z,97.79
2022-12-08T02:31:23.316Z,97.97
2022-12-08T02:34:16.963Z,98.51
2022-12-08T02:36:52.050Z,98.41
2022-12-08T02:39:29.536Z,97.97
2022-12-08T02:42:06.043Z,98.27
2022-12-08T02:44:40.523Z,98.13
2022-12-08T02:47:12.275Z,98.25
2022-12-08T02:49:41.757Z,98.02
2022-12-08T02:52:44.093Z,98.25
2022-12-08T02:55:27.757Z,98.11
2022-12-08T02:58:18.898Z,98.08
2022-12-08T03:00:59.949Z,98.17
2022-12-08T03:03:35.229Z,98.28
2022-12-08T03:06:13.427Z,98.22
2022-12-08T03:08:50.334Z,97.94
2022-12-08T03:11:23.124Z,97.92
2022-12-08T03:13:53.427Z,98.18
2022-12-08T03:16:25.815Z,98.04
2022-12-08T03:19:01.962Z,98.35
2022-12-08T03:21:31.684Z,98.11
2022-12-08T03:24:03.383Z,98.14
2022-12-08T03:26:36.022Z,97.99
2022-12-08T03:29:04.661Z,98.30
2022-12-08T03:31:35.911Z,98.64
2022-12-08T03:34:05.814Z,98.53
2022-12-08T03:36:33.536Z,98.30
2022-12-08T03:39:02.728Z,98.13
2022-12-08T03:41:30.669Z,98.48
2022-12-08T03:43:59.502Z,98.12
2022-12-08T03:48:56.534Z,98.18
2022-12-08T03:51:24.876Z,98.42
2022-12-08T03:53:52.650Z,98.42
2022-12-08T03:56:26.525Z,98.21
2022-12-08T03:58:55.403Z,98.23
2022-12-08T04:01:23.671Z,98.52
2022-12-08T04:03:51.707Z,98.44
2022-12-08T04:06:20.226Z,98.39
2022-12-08T04:08:48.374Z,98.56
2022-12-08T04:11:16.262Z,98.49
2022-12-08T04:13:45.759Z,98.37
2022-12-08T04:16:16.911Z,98.25
2022-12-08T04:18:44.791Z,98.51
2022-12-08T04:21:12.541Z,98.33
2022-12-08T04:23:40.237Z,98.72
2022-12-08T04:26:08.083Z,98.85
2022-12-08T04:28:35.786Z,98.51
2022-12-08T04:31:05.706Z,98.63
2022-12-08T04:33:33.529Z,98.85
2022-12-08T04:36:01.141Z,98.76
2022-12-08T04:38:29.443Z,99.20
2022-12-08T04:40:57.162Z,99.13
2022-12-08T04:43:24.854Z,98.84
2022-12-08T04:45:52.603Z,98.67
2022-12-08T04:48:21.718Z,98.97
2022-12-08T04:50:49.507Z,98.96
2022-12-08T04:53:17.205Z,98.80
2022-12-08T04:55:48.608Z,99.07
2022-12-08T04:58:18.355Z,98.99
2022-12-08T05:00:46.636Z,98.84
2022-12-08T05:03:14.614Z,99.21
2022-12-08T05:05:44.301Z,99.23
2022-12-08T05:08:12.312Z,99.23
2022-12-08T05:10:40.345Z,99.33
2022-12-08T05:13:08.027Z,99.55
2022-12-08T05:15:35.727Z,99.52
2022-12-08T05:18:03.385Z,99.55
2022-12-08T05:20:31.111Z,99.61
2022-12-08T05:23:00.139Z,99.96
2022-12-08T05:25:27.917Z,99.56
2022-12-08T05:28:17.503Z,99.56
2022-12-08T05:30:43.206Z,100.00
2022-12-08T05:33:10.865Z,99.85
2022-12-08T05:35:38.524Z,99.50
2022-12-08T05:38:08.115Z,99.42
2022-12-08T05:40:35.805Z,99.89
2022-12-08T05:43:03.492Z,100.00
2022-12-08T05:45:31.244Z,99.87
2022-12-08T05:47:59.004Z,100.00
2022-12-08T05:50:26.709Z,100.00
2022-12-08T05:52:54.670Z,100.00
2022-12-08T05:55:23.922Z,100.00
2022-12-08T05:57:51.519Z,100.00
2022-12-08T06:00:20.314Z,99.92
2022-12-08T06:02:48.149Z,100.00
2022-12-08T06:05:16.054Z,99.82
2022-12-08T06:07:43.790Z,99.79
2022-12-08T06:10:12.332Z,99.58
2022-12-08T06:12:41.575Z,99.53
2022-12-08T06:15:09.746Z,99.49
2022-12-08T06:17:37.529Z,99.67
2022-12-08T06:20:06.718Z,99.23
2022-12-08T06:22:34.605Z,99.71
2022-12-08T06:25:05.899Z,99.71
2022-12-08T06:27:35.068Z,99.84
2022-12-08T06:30:05.376Z,99.23
2022-12-08T06:32:33.332Z,99.13
2022-12-08T06:35:01.046Z,99.49
2022-12-08T06:37:28.756Z,99.23
2022-12-08T06:39:56.554Z,98.94
2022-12-08T06:42:41.858Z,98.77
2022-12-08T06:45:11.764Z,99.05
2022-12-08T06:47:39.468Z,99.11
2022-12-08T06:50:08.647Z,98.86
2022-12-08T06:52:43.182Z,98.82
2022-12-08T06:55:35.366Z,99.19
2022-12-08T06:58:03.245Z,99.56
2022-12-08T07:00:32.546Z,99.10
2022-12-08T07:03:00.568Z,99.63
2022-12-08T07:05:28.561Z,99.28
2022-12-08T07:07:56.567Z,99.18
2022-12-08T07:10:24.482Z,99.63
2022-12-08T07:12:52.540Z,99.85
2022-12-08T07:15:20.945Z,99.94
2022-12-08T07:17:53.682Z,99.72
2022-12-08T07:20:25.827Z,99.34
2022-12-08T07:22:54.272Z,99.79
2022-12-08T07:25:22.937Z,99.90
2022-12-08T07:27:51.793Z,99.86
2022-12-08T07:30:20.438Z,99.80
2022-12-08T07:32:48.759Z,99.45
2022-12-08T07:35:18.382Z,99.41
2022-12-08T07:37:46.487Z,99.90
2022-12-08T07:40:17.698Z,100.00
2022-12-08T07:42:45.763Z,100.00
2022-12-08T07:45:16.655Z,99.70
2022-12-08T07:47:44.701Z,99.97
2022-12-08T07:50:12.768Z,99.77
2022-12-08T07:52:42.515Z,99.89
2022-12-08T07:55:11.430Z,100.00
2022-12-08T07:57:39.442Z,100.00
2022-12-08T08:00:08.930Z,100.00
2022-12-08T08:02:37.321Z,100.00
2022-12-08T08:05:06.310Z,100.00
2022-12-08T08:07:35.135Z,100.00
2022-12-08T08:10:06.190Z,99.71
2022-12-08T08:12:34.494Z,99.56
2022-12-08T08:15:03.070Z,99.46
2022-12-08T08:17:31.699Z,99.40
2022-12-08T08:19:59.737Z,98.85
2022-12-08T08:22:28.725Z,98.82
2022-12-08T08:24:56.759Z,99.24
2022-12-08T08:27:26.942Z,99.51
2022-12-08T08:29:55.105Z,99.59
2022-12-08T08:32:22.989Z,99.35
2022-12-08T08:34:52.069Z,99.27
2022-12-08T08:37:20.483Z,99.23
2022-12-08T08:39:48.497Z,99.42
2022-12-08T08:42:16.622Z,99.56
2022-12-08T08:44:46.355Z,99.25
2022-12-08T08:47:14.245Z,99.04
2022-12-08T08:49:42.558Z,99.47
2022-12-08T08:52:10.363Z,99.03
2022-12-08T08:54:38.308Z,99.01
2022-12-08T08:57:06.255Z,99.25
2022-12-08T08:59:34.243Z,99.62
2022-12-08T09:02:06.722Z,98.73
2022-12-08T09:04:34.834Z,99.02
2022-12-08T09:07:02.861Z,99.68
2022-12-08T09:09:31.281Z,99.78
2022-12-08T09:11:59.049Z,99.59
2022-12-08T09:14:27.835Z,99.46
2022-12-08T09:16:55.860Z,99.04
2022-12-08T09:19:25.075Z,98.98
2022-12-08T09:21:53.039Z,98.75
2022-12-08T09:24:20.886Z,99.18
2022-12-08T09:26:48.598Z,99.10
2022-12-08T09:29:17.669Z,99.35
2022-12-08T09:31:45.950Z,99.11
2022-12-08T09:34:14.542Z,99.30
2022-12-08T09:36:43.874Z,99.56
2022-12-08T09:39:11.612Z,98.63
2022-12-08T09:41:48.578Z,99.16
2022-12-08T09:44:45.211Z,99.06
2022-12-08T09:47:19.624Z,98.63
2022-12-08T09:49:55.295Z,98.41
2022-12-08T09:52:27.728Z,98.96
2022-12-08T09:54:59.895Z,98.66
2022-12-08T09:57:28.149Z,98.72
2022-12-08T10:00:02.314Z,99.13
2022-12-08T10:02:31.601Z,98.82
2022-12-08T10:05:00.496Z,98.61
2022-12-08T10:07:39.392Z,98.47
2022-12-08T10:10:17.661Z,98.64
2022-12-08T10:12:52.732Z,98.18
2022-12-08T10:15:35.207Z,98.42
2022-12-08T10:18:05.588Z,98.27
2022-12-08T10:20:41.316Z,98.85
2022-12-08T10:23:17.600Z,98.87
2022-12-08T10:25:47.314Z,99.16
2022-12-08T10:28:15.404Z,99.72
2022-12-08T10:30:43.810Z,99.99
2022-12-08T10:33:16.915Z,99.97
2022-12-08T10:35:47.348Z,100.00
2022-12-08T10:38:23.139Z,100.00
2022-12-08T10:40:53.134Z,100.00
2022-12-08T10:43:26.166Z,100.00
2022-12-08T10:45:54.615Z,99.92
2022-12-08T10:48:28.755Z,99.81
2022-12-08T10:50:58.810Z,99.68
2022-12-08T10:53:30.482Z,100.00
2022-12-08T10:56:09.315Z,100.00
2022-12-08T10:58:40.887Z,99.77
2022-12-08T11:01:13.752Z,100.00
2022-12-08T11:03:47.689Z,100.00
2022-12-08T11:06:19.208Z,99.82
2022-12-08T11:08:53.986Z,99.80
2022-12-08T11:11:29.022Z,99.29
2022-12-08T11:13:57.553Z,99.14
2022-12-08T11:16:25.650Z,99.33
2022-12-08T11:18:58.841Z,98.70
2022-12-08T11:21:36.827Z,97.91
2022-12-08T11:24:22.437Z,97.80
2022-12-08T11:26:53.870Z,98.55
2022-12-08T11:29:21.857Z,98.45
2022-12-08T11:31:54.036Z,98.55
2022-12-08T11:34:29.845Z,98.86
2022-12-08T11:36:59.046Z,98.99
2022-12-08T11:39:31.526Z,98.78
2022-12-08T11:42:01.100Z,98.99
2022-12-08T11:44:37.032Z,99.02
2022-12-08T11:47:11.884Z,99.00
2022-12-08T11:49:42.209Z,98.85
2022-12-08T11:52:17.755Z,99.24
2022-12-08T11:54:53.182Z,99.10
2022-12-08T11:57:24.316Z,99.01
2022-12-08T11:59:55.803Z,98.97
2022-12-08T12:02:26.695Z,99.02
2022-12-08T12:05:00.952Z,99.49
2022-12-08T12:07:51.833Z,99.18
2022-12-08T12:10:35.484Z,98.85
2022-12-08T12:13:15.199Z,97.92
2022-12-08T12:16:08.681Z,97.99
2022-12-08T12:18:41.400Z,98.37
2022-12-08T12:21:16.283Z,98.57
2022-12-08T12:23:57.447Z,98.28
2022-12-08T12:26:29.436Z,98.65
2022-12-08T12:29:02.288Z,98.59
2022-12-08T12:31:32.545Z,98.83
2022-12-08T12:34:09.539Z,98.75
2022-12-08T12:36:50.838Z,99.23
2022-12-08T12:39:22.224Z,99.23
2022-12-08T12:41:56.482Z,98.73
2022-12-08T12:44:43.440Z,99.01
2022-12-08T12:47:36.273Z,98.45
2022-12-08T12:50:10.227Z,97.93
2022-12-08T12:52:48.389Z,97.79
2022-12-08T12:55:29.213Z,97.82
2022-12-08T12:57:59.002Z,97.61
2022-12-08T13:00:29.206Z,97.78
2022-12-08T13:02:59.118Z,97.58
2022-12-08T13:05:32.281Z,97.80
2022-12-08T13:08:04.218Z,98.12
2022-12-08T13:10:37.513Z,98.70
2022-12-08T13:13:08.701Z,98.87
2022-12-08T13:15:39.336Z,98.90
2022-12-08T13:18:10.992Z,98.76
2022-12-08T13:20:48.589Z,98.93
2022-12-08T13:23:42.443Z,99.20
2022-12-08T13:26:15.448Z,99.30
2022-12-08T13:29:23.755Z,98.93
2022-12-08T13:31:54.110Z,99.61
2022-12-08T13:34:29.704Z,99.30
2022-12-08T13:37:22.014Z,99.53
2022-12-08T13:39:56.026Z,99.49
2022-12-08T13:42:31.618Z,99.42
2022-12-08T13:53:00.002Z,100.00
2022-12-08T13:57:03.973Z,100.00
2022-12-08T13:59:33.492Z,100.00
2022-12-08T14:02:05.853Z,100.00
2022-12-08T14:04:54.631Z,99.94
2022-12-08T14:07:22.746Z,100.00
2022-12-08T14:09:52.932Z,100.00
2022-12-08T14:12:23.709Z,100.00
2022-12-08T14:15:03.168Z,100.00
2022-12-08T14:17:31.710Z,100.00
2022-12-08T14:20:00.971Z,100.00
2022-12-08T14:22:34.883Z,100.00
2022-12-08T14:25:06.146Z,99.63
2022-12-08T14:27:36.254Z,98.90
2022-12-08T14:30:08.033Z,99.16
2022-12-08T14:32:40.027Z,98.99
2022-12-08T14:35:20.607Z,99.04
2022-12-08T14:37:49.978Z,99.56
2022-12-08T14:40:24.367Z,99.49
2022-12-08T14:42:54.440Z,99.15
2022-12-08T14:45:22.815Z,98.81
2022-12-08T14:47:51.130Z,98.94
2022-12-08T14:50:40.297Z,99.53
2022-12-08T14:53:14.895Z,99.42
2022-12-08T14:55:46.552Z,100.00
2022-12-08T14:58:24.227Z,98.98
2022-12-08T15:00:54.619Z,99.45
2022-12-08T15:03:23.854Z,99.25
2022-12-08T15:05:53.327Z,98.95
2022-12-08T15:08:21.215Z,99.05
2022-12-08T15:11:13.621Z,99.35
2022-12-08T15:13:47.300Z,99.52
2022-12-08T15:16:31.878Z,99.44
2022-12-08T15:19:05.776Z,99.94
2022-12-08T15:21:38.187Z,99.66
2022-12-08T15:24:06.512Z,99.60
2022-12-08T15:26:41.837Z,99.14
2022-12-08T15:29:18.159Z,99.36
2022-12-08T15:31:46.018Z,99.77
2022-12-08T15:34:13.717Z,99.56
2022-12-08T15:36:43.058Z,99.28
2022-12-08T15:39:22.286Z,99.33
2022-12-08T15:41:51.322Z,99.42
2022-12-08T15:44:19.038Z,99.61
2022-12-08T15:46:46.952Z,99.44
2022-12-08T15:49:19.438Z,99.37
2022-12-08T15:51:47.931Z,99.52
2022-12-08T15:54:16.174Z,99.66
2022-12-08T15:57:10.900Z,99.42
2022-12-08T15:59:36.739Z,99.48
2022-12-08T16:02:04.578Z,98.97
2022-12-08T16:07:23.859Z,99.55
2022-12-08T16:09:51.873Z,99.47
2022-12-08T16:18:23.897Z,99.56
2022-12-08T16:21:12.388Z,99.63
2022-12-08T16:23:44.204Z,99.54
2022-12-08T16:26:35.557Z,99.50
2022-12-08T16:29:01.957Z,99.25
2022-12-08T16:31:31.087Z,98.98
2022-12-08T16:33:58.821Z,99.10
2022-12-08T16:36:26.483Z,99.09
2022-12-08T16:38:54.457Z,99.18
2022-12-08T16:41:41.378Z,99.54
2022-12-08T16:44:12.680Z,99.44
2022-12-08T16:46:42.307Z,99.62
2022-12-08T16:49:18.032Z,99.21
2022-12-08T16:51:46.546Z,99.41
2022-12-08T16:54:14.409Z,99.34
2022-12-08T16:56:42.112Z,99.01
2022-12-08T16:59:09.963Z,98.87
2022-12-08T17:01:37.976Z,99.13
2022-12-08T17:04:30.540Z,99.28
2022-12-08T17:06:55.169Z,99.44
2022-12-08T17:09:23.016Z,99.18
2022-12-08T17:11:50.882Z,98.99
2022-12-08T17:14:18.839Z,98.94
2022-12-08T17:16:47.040Z,99.09
2022-12-08T17:19:17.620Z,99.32
2022-12-08T17:21:46.150Z,99.57
2022-12-08T17:24:18.577Z,99.42
2022-12-08T17:26:49.976Z,99.23
2022-12-08T17:29:18.831Z,99.48
2022-12-08T17:31:47.627Z,99.83
2022-12-08T17:34:17.274Z,100.00
2022-12-08T17:36:45.468Z,99.90
2022-12-08T17:39:18.647Z,99.54
2022-12-08T17:41:47.569Z,99.54
2022-12-08T17:44:17.700Z,99.37
2022-12-08T17:46:52.096Z,99.65
2022-12-08T17:49:25.327Z,99.76
2022-12-08T17:51:55.229Z,99.47
2022-12-08T17:54:23.539Z,99.26
2022-12-08T17:56:52.348Z,99.39
2022-12-08T17:59:21.070Z,99.37
2022-12-08T18:01:49.228Z,99.61
2022-12-08T18:04:17.031Z,99.86
2022-12-08T18:06:46.399Z,99.72
2022-12-08T18:09:14.611Z,99.71
2022-12-08T18:11:43.949Z,99.59
2022-12-08T18:14:12.838Z,99.40
2022-12-08T18:16:43.211Z,99.71
2022-12-08T18:19:12.027Z,99.86
2022-12-08T18:21:40.349Z,99.90
2022-12-08T18:24:16.413Z,99.97
2022-12-08T18:26:44.300Z,100.00
2022-12-08T18:29:12.144Z,99.65
2022-12-08T18:31:40.073Z,99.71
2022-12-08T18:34:08.140Z,99.66
2022-12-08T18:36:35.907Z,99.48
2022-12-08T18:39:08.920Z,99.25
2022-12-08T18:41:40.101Z,99.39
2022-12-08T18:44:07.912Z,99.62
2022-12-08T18:46:35.740Z,99.82
2022-12-08T18:49:03.643Z,99.51
2022-12-08T18:51:31.776Z,99.16
2022-12-08T18:53:59.737Z,99.25
2022-12-08T18:56:30.411Z,98.89
2022-12-08T18:59:03.678Z,99.17
2022-12-08T19:01:32.715Z,99.40
2022-12-08T19:06:50.022Z,99.01
2022-12-08T19:09:18.732Z,98.84
2022-12-08T19:11:46.592Z,99.15
2022-12-08T19:14:15.893Z,98.52
2022-12-08T19:16:43.763Z,98.89
2022-12-08T19:19:11.525Z,98.73
2022-12-08T19:21:45.952Z,98.71
2022-12-08T19:24:14.239Z,98.58
2022-12-08T19:26:44.043Z,97.94
2022-12-08T19:29:12.619Z,98.09
2022-12-08T19:31:41.907Z,98.23
2022-12-08T19:34:11.313Z,98.35
2022-12-08T19:36:42.691Z,97.54
2022-12-08T19:39:33.331Z,96.98
2022-12-08T19:42:18.326Z,97.10
2022-12-08T19:44:55.474Z,97.12
2022-12-08T19:47:27.187Z,97.25
2022-12-08T19:50:16.553Z,97.24
2022-12-08T19:52:45.625Z,97.29
2022-12-08T19:55:13.793Z,97.27
2022-12-08T19:57:41.670Z,97.05
2022-12-08T20:00:12.849Z,97.29
2022-12-08T20:02:42.519Z,97.41
2022-12-08T20:05:11.715Z,97.56
2022-12-08T20:07:39.945Z,97.82
2022-12-08T20:10:10.600Z,97.92
2022-12-08T20:12:38.491Z,98.13
2022-12-08T20:15:09.773Z,98.69
2022-12-08T20:17:37.656Z,98.62
2022-12-08T20:20:09.032Z,98.65
2022-12-08T20:22:37.811Z,98.81
2022-12-08T20:25:06.249Z,98.54
2022-12-08T20:27:34.350Z,98.58
2022-12-08T20:30:02.188Z,98.80
2022-12-08T20:32:30.048Z,98.29
2022-12-08T20:34:57.950Z,98.54
2022-12-08T20:37:27.285Z,98.05
2022-12-08T20:39:55.240Z,98.30
2022-12-08T20:42:24.138Z,98.19
2022-12-08T20:44:52.136Z,98.18
2022-12-08T20:47:20.208Z,98.20
2022-12-08T20:49:48.292Z,98.22
2022-12-08T20:52:16.363Z,98.15
2022-12-08T20:54:45.700Z,98.80
2022-12-08T20:57:13.918Z,98.42
2022-12-08T20:59:42.078Z,98.43
2022-12-08T21:02:11.225Z,98.56
2022-12-08T21:04:39.234Z,98.21
2022-12-08T21:07:08.933Z,98.21
2022-12-08T21:09:37.326Z,98.47
2022-12-08T21:12:07.289Z,98.72
2022-12-08T21:14:35.984Z,99.02
2022-12-08T21:17:04.794Z,98.97
2022-12-08T21:19:32.694Z,98.85
2022-12-08T21:22:00.656Z,99.28
2022-12-08T21:24:33.704Z,99.22
2022-12-08T21:27:02.923Z,99.46
2022-12-08T21:29:32.478Z,99.64
2022-12-08T21:32:01.266Z,99.79
2022-12-08T21:34:31.900Z,99.87
2022-12-08T21:37:00.092Z,100.00
2022-12-08T21:39:28.812Z,99.84
2022-12-08T21:42:14.057Z,99.96
2022-12-08T21:44:44.153Z,99.92
2022-12-08T21:47:13.853Z,100.00
2022-12-08T21:49:43.122Z,100.00
2022-12-08T21:52:11.280Z,100.00
2022-12-08T21:54:39.317Z,100.00
2022-12-08T21:57:07.453Z,100.00
2022-12-08T21:59:35.440Z,100.00
2022-12-08T22:02:04.980Z,100.00
2022-12-08T22:04:33.143Z,100.00
2022-12-08T22:07:01.268Z,100.00
2022-12-08T22:09:29.636Z,100.00
2022-12-08T22:11:57.862Z,100.00
2022-12-08T22:14:26.010Z,100.00
2022-12-08T22:16:54.093Z,100.00
2022-12-08T22:19:24.760Z,100.00
2022-12-08T22:21:52.793Z,100.00
2022-12-08T22:24:20.984Z,100.00
2022-12-08T22:26:49.120Z,100.00
2022-12-08T22:29:17.505Z,100.00
2022-12-08T22:31:45.522Z,100.00
2022-12-08T22:34:14.465Z,100.00
2022-12-08T22:36:44.548Z,100.00
2022-12-08T22:39:12.829Z,100.00
2022-12-08T22:41:41.168Z,100.00
2022-12-08T22:44:10.241Z,100.00
2022-12-08T22:46:38.257Z,100.00
2022-12-08T22:49:06.117Z,100.00
2022-12-08T22:51:36.742Z,100.00
2022-12-08T22:54:06.579Z,100.00
2022-12-08T22:56:34.495Z,100.00
2022-12-08T22:59:02.598Z,100.00
2022-12-08T23:01:32.417Z,99.86
2022-12-08T23:04:01.625Z,100.00
2022-12-08T23:06:31.273Z,100.00
2022-12-08T23:09:00.570Z,99.96
2022-12-08T23:11:31.850Z,99.90
2022-12-08T23:14:01.152Z,99.94
2022-12-08T23:16:29.227Z,100.00
2022-12-08T23:18:57.365Z,99.76
2022-12-08T23:21:25.374Z,99.94
2022-12-08T23:23:53.536Z,100.00
2022-12-08T23:26:23.816Z,100.00
2022-12-08T23:28:53.701Z,100.00
2022-12-08T23:31:22.499Z,100.00
2022-12-08T23:33:50.855Z,100.00
2022-12-08T23:36:19.929Z,100.00
2022-12-08T23:38:49.037Z,100.00
2022-12-08T23:41:18.476Z,100.00
2022-12-08T23:43:47.953Z,100.00
2022-12-08T23:46:19.686Z,100.00
2022-12-08T23:48:48.151Z,99.54
2022-12-08T23:51:17.094Z,99.51
2022-12-08T23:53:46.903Z,100.00
2022-12-08T23:56:16.899Z,99.85
2022-12-08T23:58:46.169Z,99.44
